sensor_id;sensor_type;location;lat;lon;timestamp;P1;durP1;ratioP1;P2;durP2;ratioP2
68050;SDS011;54839;51.364;7.246;2022-12-10T00:01:04;67.47;;;39.23;;
68050;SDS011;54839;51.364;7.246;2022-12-10T00:03:31;71.30;;;35.97;;
68050;SDS011;54839;51.364;7.246;2022-12-10T00:06:04;73.43;;;40.67;;
68050;SDS011;54839;51.364;7.246;2022-12-10T00:08:31;71.77;;;36.83;;
68050;SDS011;54839;51.364;7.246;2022-12-10T00:10:58;74.80;;;37.37;;
68050;SDS011;54839;51.364;7.246;2022-12-10T00:13:24;72.67;;;37.03;;
68050;SDS011;54839;51.364;7.246;2022-12-10T00:15:50;73.67;;;39.17;;
68050;SDS011;54839;51.364;7.246;2022-12-10T00:18:16;71.70;;;37.17;;
68050;SDS011;54839;51.364;7.246;2022-12-10T00:20:41;75.53;;;40.07;;
68050;SDS011;54839;51.364;7.246;2022-12-10T00:23:07;74.93;;;38.90;;
68050;SDS011;54839;51.364;7.246;2022-12-10T00:25:33;84.00;;;42.00;;
68050;SDS011;54839;51.364;7.246;2022-12-10T00:27:58;67.87;;;37.40;;
68050;SDS011;54839;51.364;7.246;2022-12-10T00:30:24;73.83;;;39.50;;
68050;SDS011;54839;51.364;7.246;2022-12-10T00:32:50;75.27;;;40.87;;
68050;SDS011;54839;51.364;7.246;2022-12-10T00:35:16;73.97;;;37.77;;
68050;SDS011;54839;51.364;7.246;2022-12-10T00:37:41;75.00;;;39.60;;
68050;SDS011;54839;51.364;7.246;2022-12-10T00:40:07;67.90;;;35.30;;
68050;SDS011;54839;51.364;7.246;2022-12-10T00:42:33;67.00;;;37.27;;
68050;SDS011;54839;51.364;7.246;2022-12-10T00:44:59;69.87;;;37.23;;
68050;SDS011;54839;51.364;7.246;2022-12-10T00:47:25;61.60;;;36.50;;
68050;SDS011;54839;51.364;7.246;2022-12-10T00:49:50;70.30;;;37.60;;
68050;SDS011;54839;51.364;7.246;2022-12-10T00:52:16;67.10;;;35.20;;
68050;SDS011;54839;51.364;7.246;2022-12-10T00:54:42;69.97;;;37.03;;
68050;SDS011;54839;51.364;7.246;2022-12-10T00:57:07;68.50;;;37.10;;
68050;SDS011;54839;51.364;7.246;2022-12-10T00:59:33;74.13;;;36.60;;
68050;SDS011;54839;51.364;7.246;2022-12-10T01:01:59;70.30;;;37.50;;
68050;SDS011;54839;51.364;7.246;2022-12-10T01:04:24;62.70;;;37.13;;
68050;SDS011;54839;51.364;7.246;2022-12-10T01:06:51;71.30;;;37.90;;
68050;SDS011;54839;51.364;7.246;2022-12-10T01:09:19;71.33;;;38.93;;
68050;SDS011;54839;51.364;7.246;2022-12-10T01:11:50;76.43;;;39.23;;
68050;SDS011;54839;51.364;7.246;2022-12-10T01:14:18;69.40;;;37.37;;
68050;SDS011;54839;51.364;7.246;2022-12-10T01:16:46;69.10;;;38.47;;
68050;SDS011;54839;51.364;7.246;2022-12-10T01:19:12;71.50;;;38.73;;
68050;SDS011;54839;51.364;7.246;2022-12-10T01:21:38;64.43;;;34.37;;
68050;SDS011;54839;51.364;7.246;2022-12-10T01:24:04;74.23;;;38.23;;
68050;SDS011;54839;51.364;7.246;2022-12-10T01:26:31;76.43;;;39.37;;
68050;SDS011;54839;51.364;7.246;2022-12-10T01:28:58;68.30;;;37.90;;
68050;SDS011;54839;51.364;7.246;2022-12-10T01:31:28;73.63;;;40.27;;
68050;SDS011;54839;51.364;7.246;2022-12-10T01:33:56;64.90;;;37.47;;
68050;SDS011;54839;51.364;7.246;2022-12-10T01:38:52;75.13;;;38.43;;
68050;SDS011;54839;51.364;7.246;2022-12-10T01:41:20;69.40;;;36.67;;
68050;SDS011;54839;51.364;7.246;2022-12-10T01:46:32;72.50;;;39.40;;
68050;SDS011;54839;51.364;7.246;2022-12-10T01:49:00;68.57;;;40.00;;
68050;SDS011;54839;51.364;7.246;2022-12-10T01:51:30;71.43;;;40.00;;
68050;SDS011;54839;51.364;7.246;2022-12-10T01:53:58;78.37;;;42.43;;
68050;SDS011;54839;51.364;7.246;2022-12-10T01:56:25;79.93;;;39.47;;
68050;SDS011;54839;51.364;7.246;2022-12-10T01:58:51;67.67;;;37.43;;
68050;SDS011;54839;51.364;7.246;2022-12-10T02:02:21;66.30;;;36.97;;
68050;SDS011;54839;51.364;7.246;2022-12-10T02:04:33;67.57;;;37.57;;
68050;SDS011;54839;51.364;7.246;2022-12-10T02:15:13;60.80;;;35.40;;
68050;SDS011;54839;51.364;7.246;2022-12-10T02:17:46;61.93;;;36.30;;
68050;SDS011;54839;51.364;7.246;2022-12-10T02:20:28;69.33;;;37.67;;
68050;SDS011;54839;51.364;7.246;2022-12-10T02:23:04;67.23;;;36.53;;
68050;SDS011;54839;51.364;7.246;2022-12-10T02:26:18;63.33;;;33.13;;
68050;SDS011;54839;51.364;7.246;2022-12-10T02:31:11;57.23;;;35.43;;
68050;SDS011;54839;51.364;7.246;2022-12-10T02:33:42;31.47;;;21.00;;
68050;SDS011;54839;51.364;7.246;2022-12-10T02:36:12;60.93;;;34.67;;
68050;SDS011;54839;51.364;7.246;2022-12-10T02:38:40;58.87;;;34.70;;
68050;SDS011;54839;51.364;7.246;2022-12-10T02:41:17;63.83;;;36.07;;
68050;SDS011;54839;51.364;7.246;2022-12-10T02:43:47;68.30;;;37.00;;
68050;SDS011;54839;51.364;7.246;2022-12-10T02:46:15;65.13;;;35.87;;
68050;SDS011;54839;51.364;7.246;2022-12-10T02:48:41;56.20;;;32.47;;
68050;SDS011;54839;51.364;7.246;2022-12-10T02:51:07;60.07;;;34.10;;
68050;SDS011;54839;51.364;7.246;2022-12-10T02:53:33;69.50;;;39.20;;
68050;SDS011;54839;51.364;7.246;2022-12-10T02:56:20;61.07;;;33.37;;
68050;SDS011;54839;51.364;7.246;2022-12-10T03:04:25;40.27;;;26.67;;
68050;SDS011;54839;51.364;7.246;2022-12-10T03:07:00;40.13;;;25.67;;
68050;SDS011;54839;51.364;7.246;2022-12-10T03:09:36;37.10;;;23.67;;
68050;SDS011;54839;51.364;7.246;2022-12-10T03:12:14;37.87;;;25.20;;
68050;SDS011;54839;51.364;7.246;2022-12-10T03:15:03;35.67;;;23.07;;
68050;SDS011;54839;51.364;7.246;2022-12-10T03:17:32;39.50;;;24.30;;
68050;SDS011;54839;51.364;7.246;2022-12-10T03:19:57;41.73;;;25.27;;
68050;SDS011;54839;51.364;7.246;2022-12-10T03:22:25;32.97;;;22.23;;
68050;SDS011;54839;51.364;7.246;2022-12-10T03:24:51;29.67;;;19.50;;
68050;SDS011;54839;51.364;7.246;2022-12-10T03:27:19;27.33;;;20.23;;
68050;SDS011;54839;51.364;7.246;2022-12-10T03:29:47;32.40;;;22.03;;
68050;SDS011;54839;51.364;7.246;2022-12-10T03:32:18;26.60;;;18.63;;
68050;SDS011;54839;51.364;7.246;2022-12-10T03:34:46;29.70;;;21.07;;
68050;SDS011;54839;51.364;7.246;2022-12-10T03:37:13;33.63;;;21.40;;
68050;SDS011;54839;51.364;7.246;2022-12-10T03:39:40;31.23;;;20.10;;
68050;SDS011;54839;51.364;7.246;2022-12-10T03:42:07;33.70;;;19.27;;
68050;SDS011;54839;51.364;7.246;2022-12-10T03:44:34;31.03;;;20.40;;
68050;SDS011;54839;51.364;7.246;2022-12-10T03:47:02;30.80;;;19.23;;
68050;SDS011;54839;51.364;7.246;2022-12-10T03:49:30;34.30;;;19.83;;
68050;SDS011;54839;51.364;7.246;2022-12-10T03:51:55;34.90;;;22.77;;
68050;SDS011;54839;51.364;7.246;2022-12-10T03:54:21;31.17;;;20.23;;
68050;SDS011;54839;51.364;7.246;2022-12-10T03:56:47;31.60;;;20.30;;
68050;SDS011;54839;51.364;7.246;2022-12-10T03:59:13;29.50;;;21.70;;
68050;SDS011;54839;51.364;7.246;2022-12-10T04:01:39;31.23;;;22.13;;
68050;SDS011;54839;51.364;7.246;2022-12-10T04:04:05;33.23;;;21.57;;
68050;SDS011;54839;51.364;7.246;2022-12-10T04:06:31;36.67;;;22.60;;
68050;SDS011;54839;51.364;7.246;2022-12-10T04:08:57;32.70;;;22.27;;
68050;SDS011;54839;51.364;7.246;2022-12-10T04:11:23;27.90;;;20.60;;
68050;SDS011;54839;51.364;7.246;2022-12-10T04:13:49;29.10;;;20.77;;
68050;SDS011;54839;51.364;7.246;2022-12-10T04:16:34;33.20;;;21.20;;
68050;SDS011;54839;51.364;7.246;2022-12-10T04:19:01;30.67;;;18.27;;
68050;SDS011;54839;51.364;7.246;2022-12-10T04:21:33;25.90;;;16.07;;
68050;SDS011;54839;51.364;7.246;2022-12-10T04:24:19;23.07;;;15.90;;
68050;SDS011;54839;51.364;7.246;2022-12-10T04:27:27;21.50;;;16.13;;
68050;SDS011;54839;51.364;7.246;2022-12-10T04:29:53;23.27;;;15.40;;
68050;SDS011;54839;51.364;7.246;2022-12-10T04:32:21;25.17;;;17.47;;
68050;SDS011;54839;51.364;7.246;2022-12-10T04:34:48;24.70;;;19.00;;
68050;SDS011;54839;51.364;7.246;2022-12-10T04:37:13;28.07;;;18.33;;
68050;SDS011;54839;51.364;7.246;2022-12-10T04:39:40;21.83;;;16.30;;
68050;SDS011;54839;51.364;7.246;2022-12-10T04:42:06;22.20;;;16.17;;
68050;SDS011;54839;51.364;7.246;2022-12-10T04:44:32;22.10;;;14.67;;
68050;SDS011;54839;51.364;7.246;2022-12-10T04:46:59;21.97;;;15.90;;
68050;SDS011;54839;51.364;7.246;2022-12-10T04:49:25;22.30;;;16.67;;
68050;SDS011;54839;51.364;7.246;2022-12-10T04:51:51;19.00;;;14.60;;
68050;SDS011;54839;51.364;7.246;2022-12-10T04:54:18;19.87;;;15.63;;
68050;SDS011;54839;51.364;7.246;2022-12-10T04:56:44;19.93;;;15.83;;
68050;SDS011;54839;51.364;7.246;2022-12-10T04:59:10;23.53;;;15.67;;
68050;SDS011;54839;51.364;7.246;2022-12-10T05:01:36;24.37;;;18.17;;
68050;SDS011;54839;51.364;7.246;2022-12-10T05:04:04;25.20;;;17.77;;
68050;SDS011;54839;51.364;7.246;2022-12-10T05:06:32;23.20;;;17.00;;
68050;SDS011;54839;51.364;7.246;2022-12-10T05:08:59;26.13;;;17.80;;
68050;SDS011;54839;51.364;7.246;2022-12-10T05:11:25;20.93;;;15.67;;
68050;SDS011;54839;51.364;7.246;2022-12-10T05:13:53;22.33;;;16.50;;
68050;SDS011;54839;51.364;7.246;2022-12-10T05:16:20;24.33;;;16.37;;
68050;SDS011;54839;51.364;7.246;2022-12-10T05:18:47;21.83;;;15.00;;
68050;SDS011;54839;51.364;7.246;2022-12-10T05:21:14;20.77;;;14.63;;
68050;SDS011;54839;51.364;7.246;2022-12-10T05:23:43;21.73;;;16.07;;
68050;SDS011;54839;51.364;7.246;2022-12-10T05:26:11;26.80;;;18.07;;
68050;SDS011;54839;51.364;7.246;2022-12-10T05:28:44;23.20;;;14.90;;
68050;SDS011;54839;51.364;7.246;2022-12-10T05:31:18;23.10;;;16.30;;
68050;SDS011;54839;51.364;7.246;2022-12-10T05:33:49;17.77;;;14.57;;
68050;SDS011;54839;51.364;7.246;2022-12-10T05:36:16;19.30;;;15.30;;
68050;SDS011;54839;51.364;7.246;2022-12-10T05:38:43;20.57;;;15.77;;
68050;SDS011;54839;51.364;7.246;2022-12-10T05:41:31;21.83;;;15.93;;
68050;SDS011;54839;51.364;7.246;2022-12-10T05:43:58;27.53;;;18.00;;
68050;SDS011;54839;51.364;7.246;2022-12-10T05:46:26;22.03;;;16.07;;
68050;SDS011;54839;51.364;7.246;2022-12-10T05:48:53;26.30;;;19.23;;
68050;SDS011;54839;51.364;7.246;2022-12-10T05:51:21;23.77;;;16.17;;
68050;SDS011;54839;51.364;7.246;2022-12-10T05:53:52;22.50;;;16.70;;
68050;SDS011;54839;51.364;7.246;2022-12-10T05:56:20;23.03;;;17.27;;
68050;SDS011;54839;51.364;7.246;2022-12-10T05:58:48;23.80;;;16.27;;
68050;SDS011;54839;51.364;7.246;2022-12-10T06:01:24;24.27;;;18.43;;
68050;SDS011;54839;51.364;7.246;2022-12-10T06:03:51;25.70;;;18.20;;
68050;SDS011;54839;51.364;7.246;2022-12-10T06:06:25;23.13;;;16.77;;
68050;SDS011;54839;51.364;7.246;2022-12-10T06:08:52;28.13;;;18.77;;
68050;SDS011;54839;51.364;7.246;2022-12-10T06:11:18;25.63;;;16.97;;
68050;SDS011;54839;51.364;7.246;2022-12-10T06:13:44;24.97;;;18.50;;
68050;SDS011;54839;51.364;7.246;2022-12-10T06:16:11;24.70;;;17.53;;
68050;SDS011;54839;51.364;7.246;2022-12-10T06:18:37;28.00;;;18.00;;
68050;SDS011;54839;51.364;7.246;2022-12-10T06:21:04;22.70;;;15.97;;
68050;SDS011;54839;51.364;7.246;2022-12-10T06:23:30;26.20;;;19.10;;
68050;SDS011;54839;51.364;7.246;2022-12-10T06:25:56;23.90;;;18.10;;
68050;SDS011;54839;51.364;7.246;2022-12-10T06:28:22;24.97;;;18.80;;
68050;SDS011;54839;51.364;7.246;2022-12-10T06:30:47;27.47;;;18.07;;
68050;SDS011;54839;51.364;7.246;2022-12-10T06:33:13;28.07;;;19.13;;
68050;SDS011;54839;51.364;7.246;2022-12-10T06:35:39;25.83;;;17.80;;
68050;SDS011;54839;51.364;7.246;2022-12-10T06:38:04;27.40;;;18.63;;
68050;SDS011;54839;51.364;7.246;2022-12-10T06:40:30;27.60;;;19.53;;
68050;SDS011;54839;51.364;7.246;2022-12-10T06:42:56;29.87;;;18.63;;
68050;SDS011;54839;51.364;7.246;2022-12-10T06:45:21;29.03;;;18.87;;
68050;SDS011;54839;51.364;7.246;2022-12-10T06:47:47;27.70;;;19.60;;
68050;SDS011;54839;51.364;7.246;2022-12-10T06:50:13;23.13;;;17.97;;
68050;SDS011;54839;51.364;7.246;2022-12-10T06:52:38;26.27;;;18.33;;
68050;SDS011;54839;51.364;7.246;2022-12-10T06:55:04;28.73;;;20.30;;
68050;SDS011;54839;51.364;7.246;2022-12-10T06:57:30;28.90;;;17.90;;
68050;SDS011;54839;51.364;7.246;2022-12-10T06:59:56;27.60;;;19.37;;
68050;SDS011;54839;51.364;7.246;2022-12-10T07:02:21;25.03;;;18.33;;
68050;SDS011;54839;51.364;7.246;2022-12-10T07:04:47;28.90;;;18.90;;
68050;SDS011;54839;51.364;7.246;2022-12-10T07:07:13;32.60;;;19.10;;
68050;SDS011;54839;51.364;7.246;2022-12-10T07:09:38;28.50;;;18.87;;
68050;SDS011;54839;51.364;7.246;2022-12-10T07:12:04;26.63;;;18.90;;
68050;SDS011;54839;51.364;7.246;2022-12-10T07:14:30;26.50;;;18.03;;
68050;SDS011;54839;51.364;7.246;2022-12-10T07:16:55;24.07;;;17.00;;
68050;SDS011;54839;51.364;7.246;2022-12-10T07:19:21;31.60;;;19.30;;
68050;SDS011;54839;51.364;7.246;2022-12-10T07:21:47;32.23;;;20.90;;
68050;SDS011;54839;51.364;7.246;2022-12-10T07:24:14;25.40;;;19.00;;
68050;SDS011;54839;51.364;7.246;2022-12-10T07:26:42;27.70;;;19.33;;
68050;SDS011;54839;51.364;7.246;2022-12-10T07:29:12;31.00;;;21.77;;
68050;SDS011;54839;51.364;7.246;2022-12-10T07:31:40;26.63;;;20.23;;
68050;SDS011;54839;51.364;7.246;2022-12-10T07:34:06;30.07;;;21.90;;
68050;SDS011;54839;51.364;7.246;2022-12-10T07:36:33;34.10;;;24.00;;
68050;SDS011;54839;51.364;7.246;2022-12-10T07:38:59;30.87;;;21.30;;
68050;SDS011;54839;51.364;7.246;2022-12-10T07:41:25;32.27;;;22.40;;
68050;SDS011;54839;51.364;7.246;2022-12-10T07:43:51;31.40;;;22.77;;
68050;SDS011;54839;51.364;7.246;2022-12-10T07:48:44;30.83;;;22.27;;
68050;SDS011;54839;51.364;7.246;2022-12-10T07:51:11;28.07;;;21.30;;
68050;SDS011;54839;51.364;7.246;2022-12-10T07:53:38;32.10;;;20.77;;
68050;SDS011;54839;51.364;7.246;2022-12-10T07:56:04;33.77;;;22.87;;
68050;SDS011;54839;51.364;7.246;2022-12-10T07:58:31;28.33;;;19.67;;
68050;SDS011;54839;51.364;7.246;2022-12-10T08:00:57;31.70;;;21.13;;
68050;SDS011;54839;51.364;7.246;2022-12-10T08:03:23;28.07;;;21.37;;
68050;SDS011;54839;51.364;7.246;2022-12-10T08:05:49;33.73;;;21.70;;
68050;SDS011;54839;51.364;7.246;2022-12-10T08:08:29;29.60;;;20.97;;
68050;SDS011;54839;51.364;7.246;2022-12-10T08:10:58;34.47;;;21.13;;
68050;SDS011;54839;51.364;7.246;2022-12-10T08:13:25;34.90;;;22.73;;
68050;SDS011;54839;51.364;7.246;2022-12-10T08:15:51;32.00;;;21.43;;
68050;SDS011;54839;51.364;7.246;2022-12-10T08:18:16;30.30;;;22.97;;
68050;SDS011;54839;51.364;7.246;2022-12-10T08:20:42;32.13;;;22.57;;
68050;SDS011;54839;51.364;7.246;2022-12-10T08:23:07;32.27;;;22.60;;
68050;SDS011;54839;51.364;7.246;2022-12-10T08:25:33;28.27;;;20.93;;
68050;SDS011;54839;51.364;7.246;2022-12-10T08:28:01;38.57;;;23.43;;
68050;SDS011;54839;51.364;7.246;2022-12-10T08:30:28;35.77;;;23.00;;
68050;SDS011;54839;51.364;7.246;2022-12-10T08:32:54;30.37;;;21.73;;
68050;SDS011;54839;51.364;7.246;2022-12-10T08:35:20;31.43;;;23.00;;
68050;SDS011;54839;51.364;7.246;2022-12-10T08:37:46;30.87;;;21.50;;
68050;SDS011;54839;51.364;7.246;2022-12-10T08:40:12;38.80;;;25.57;;
68050;SDS011;54839;51.364;7.246;2022-12-10T08:42:38;33.63;;;23.10;;
68050;SDS011;54839;51.364;7.246;2022-12-10T08:45:04;34.37;;;23.47;;
68050;SDS011;54839;51.364;7.246;2022-12-10T08:47:30;37.43;;;25.60;;
68050;SDS011;54839;51.364;7.246;2022-12-10T08:49:56;32.63;;;23.23;;
68050;SDS011;54839;51.364;7.246;2022-12-10T08:52:21;38.50;;;23.47;;
68050;SDS011;54839;51.364;7.246;2022-12-10T08:54:47;34.60;;;24.20;;
68050;SDS011;54839;51.364;7.246;2022-12-10T08:57:13;36.10;;;23.60;;
68050;SDS011;54839;51.364;7.246;2022-12-10T08:59:38;33.57;;;23.20;;
68050;SDS011;54839;51.364;7.246;2022-12-10T09:02:04;37.10;;;24.33;;
68050;SDS011;54839;51.364;7.246;2022-12-10T09:04:29;32.37;;;22.17;;
68050;SDS011;54839;51.364;7.246;2022-12-10T09:06:55;34.00;;;23.87;;
68050;SDS011;54839;51.364;7.246;2022-12-10T09:09:21;31.00;;;21.97;;
68050;SDS011;54839;51.364;7.246;2022-12-10T09:11:46;34.47;;;24.63;;
68050;SDS011;54839;51.364;7.246;2022-12-10T09:14:12;39.43;;;24.23;;
68050;SDS011;54839;51.364;7.246;2022-12-10T09:16:38;42.57;;;24.93;;
68050;SDS011;54839;51.364;7.246;2022-12-10T09:19:04;42.50;;;26.93;;
68050;SDS011;54839;51.364;7.246;2022-12-10T09:21:31;34.53;;;22.97;;
68050;SDS011;54839;51.364;7.246;2022-12-10T09:23:57;44.10;;;26.70;;
68050;SDS011;54839;51.364;7.246;2022-12-10T09:26:23;50.73;;;30.10;;
68050;SDS011;54839;51.364;7.246;2022-12-10T09:28:49;47.17;;;27.97;;
68050;SDS011;54839;51.364;7.246;2022-12-10T09:31:16;51.97;;;29.43;;
68050;SDS011;54839;51.364;7.246;2022-12-10T09:33:43;51.93;;;29.57;;
68050;SDS011;54839;51.364;7.246;2022-12-10T09:36:09;49.50;;;27.47;;
68050;SDS011;54839;51.364;7.246;2022-12-10T09:38:37;48.30;;;29.20;;
68050;SDS011;54839;51.364;7.246;2022-12-10T09:51:53;57.33;;;31.67;;
68050;SDS011;54839;51.364;7.246;2022-12-10T09:54:24;62.57;;;31.20;;
68050;SDS011;54839;51.364;7.246;2022-12-10T09:56:58;66.50;;;34.37;;
68050;SDS011;54839;51.364;7.246;2022-12-10T09:59:39;62.40;;;32.37;;
68050;SDS011;54839;51.364;7.246;2022-12-10T10:07:33;63.73;;;32.37;;
68050;SDS011;54839;51.364;7.246;2022-12-10T10:10:04;53.87;;;28.43;;
68050;SDS011;54839;51.364;7.246;2022-12-10T10:12:37;54.17;;;29.07;;
68050;SDS011;54839;51.364;7.246;2022-12-10T10:15:15;70.80;;;34.63;;
68050;SDS011;54839;51.364;7.246;2022-12-10T10:17:43;69.20;;;36.90;;
68050;SDS011;54839;51.364;7.246;2022-12-10T10:20:12;72.37;;;36.17;;
68050;SDS011;54839;51.364;7.246;2022-12-10T10:22:39;72.10;;;40.53;;
68050;SDS011;54839;51.364;7.246;2022-12-10T10:25:06;76.67;;;37.47;;
68050;SDS011;54839;51.364;7.246;2022-12-10T10:27:39;67.60;;;36.07;;
68050;SDS011;54839;51.364;7.246;2022-12-10T10:30:06;70.27;;;33.50;;
68050;SDS011;54839;51.364;7.246;2022-12-10T10:35:04;60.53;;;30.10;;
68050;SDS011;54839;51.364;7.246;2022-12-10T10:37:31;64.13;;;31.83;;
68050;SDS011;54839;51.364;7.246;2022-12-10T10:40:06;65.60;;;34.63;;
68050;SDS011;54839;51.364;7.246;2022-12-10T10:42:46;66.43;;;33.70;;
68050;SDS011;54839;51.364;7.246;2022-12-10T10:48:03;57.73;;;28.80;;
68050;SDS011;54839;51.364;7.246;2022-12-10T10:50:46;66.13;;;33.83;;
68050;SDS011;54839;51.364;7.246;2022-12-10T10:53:23;80.60;;;39.07;;
68050;SDS011;54839;51.364;7.246;2022-12-10T10:55:51;70.67;;;37.77;;
68050;SDS011;54839;51.364;7.246;2022-12-10T10:58:20;66.70;;;38.30;;
68050;SDS011;54839;51.364;7.246;2022-12-10T11:01:06;73.03;;;39.77;;
68050;SDS011;54839;51.364;7.246;2022-12-10T11:03:34;67.10;;;38.77;;
68050;SDS011;54839;51.364;7.246;2022-12-10T11:06:04;66.30;;;38.60;;
68050;SDS011;54839;51.364;7.246;2022-12-10T11:08:32;72.10;;;36.03;;
68050;SDS011;54839;51.364;7.246;2022-12-10T11:11:03;62.03;;;32.17;;
68050;SDS011;54839;51.364;7.246;2022-12-10T11:13:32;66.50;;;35.63;;
68050;SDS011;54839;51.364;7.246;2022-12-10T11:16:11;68.10;;;34.90;;
68050;SDS011;54839;51.364;7.246;2022-12-10T11:18:40;74.67;;;40.30;;
68050;SDS011;54839;51.364;7.246;2022-12-10T11:23:40;64.33;;;34.57;;
68050;SDS011;54839;51.364;7.246;2022-12-10T11:29:11;68.17;;;37.50;;
68050;SDS011;54839;51.364;7.246;2022-12-10T11:42:39;81.93;;;41.90;;
68050;SDS011;54839;51.364;7.246;2022-12-10T11:45:33;76.27;;;42.10;;
68050;SDS011;54839;51.364;7.246;2022-12-10T11:50:46;82.97;;;44.57;;
68050;SDS011;54839;51.364;7.246;2022-12-10T11:56:26;76.03;;;42.40;;
68050;SDS011;54839;51.364;7.246;2022-12-10T11:59:09;79.73;;;42.20;;
68050;SDS011;54839;51.364;7.246;2022-12-10T12:09:54;78.07;;;43.70;;
68050;SDS011;54839;51.364;7.246;2022-12-10T12:15:25;83.70;;;43.47;;
68050;SDS011;54839;51.364;7.246;2022-12-10T12:20:44;71.67;;;42.43;;
68050;SDS011;54839;51.364;7.246;2022-12-10T12:23:24;77.23;;;41.30;;
68050;SDS011;54839;51.364;7.246;2022-12-10T12:25:58;70.63;;;38.60;;
68050;SDS011;54839;51.364;7.246;2022-12-10T12:31:05;74.80;;;36.60;;
68050;SDS011;54839;51.364;7.246;2022-12-10T12:33:42;77.10;;;43.70;;
68050;SDS011;54839;51.364;7.246;2022-12-10T12:36:16;70.57;;;43.27;;
68050;SDS011;54839;51.364;7.246;2022-12-10T12:38:53;60.67;;;32.73;;
68050;SDS011;54839;51.364;7.246;2022-12-10T12:44:22;69.00;;;41.00;;
68050;SDS011;54839;51.364;7.246;2022-12-10T12:49:51;70.67;;;38.30;;
68050;SDS011;54839;51.364;7.246;2022-12-10T12:54:52;70.33;;;37.27;;
68050;SDS011;54839;51.364;7.246;2022-12-10T13:00:08;62.93;;;35.37;;
68050;SDS011;54839;51.364;7.246;2022-12-10T13:02:52;64.43;;;37.60;;
68050;SDS011;54839;51.364;7.246;2022-12-10T13:05:32;58.90;;;35.23;;
68050;SDS011;54839;51.364;7.246;2022-12-10T13:13:25;60.67;;;36.27;;
68050;SDS011;54839;51.364;7.246;2022-12-10T13:15:56;66.87;;;39.20;;
68050;SDS011;54839;51.364;7.246;2022-12-10T13:18:41;63.93;;;40.40;;
68050;SDS011;54839;51.364;7.246;2022-12-10T13:24:09;60.20;;;35.97;;
68050;SDS011;54839;51.364;7.246;2022-12-10T13:26:40;65.73;;;37.10;;
68050;SDS011;54839;51.364;7.246;2022-12-10T13:29:26;66.00;;;39.17;;
68050;SDS011;54839;51.364;7.246;2022-12-10T13:34:44;85.63;;;47.87;;
68050;SDS011;54839;51.364;7.246;2022-12-10T13:40:12;66.63;;;38.70;;
68050;SDS011;54839;51.364;7.246;2022-12-10T13:42:58;62.70;;;35.40;;
68050;SDS011;54839;51.364;7.246;2022-12-10T13:46:20;60.10;;;36.40;;
68050;SDS011;54839;51.364;7.246;2022-12-10T13:48:59;67.07;;;38.77;;
68050;SDS011;54839;51.364;7.246;2022-12-10T13:56:52;66.97;;;39.10;;
68050;SDS011;54839;51.364;7.246;2022-12-10T13:59:42;67.93;;;37.47;;
68050;SDS011;54839;51.364;7.246;2022-12-10T14:05:22;68.53;;;39.47;;
68050;SDS011;54839;51.364;7.246;2022-12-10T14:07:52;54.60;;;32.80;;
68050;SDS011;54839;51.364;7.246;2022-12-10T14:10:20;73.07;;;37.63;;
68050;SDS011;54839;51.364;7.246;2022-12-10T14:12:55;62.23;;;35.20;;
68050;SDS011;54839;51.364;7.246;2022-12-10T14:15:24;65.30;;;37.70;;
68050;SDS011;54839;51.364;7.246;2022-12-10T14:18:02;64.27;;;34.83;;
68050;SDS011;54839;51.364;7.246;2022-12-10T14:20:34;68.67;;;39.03;;
68050;SDS011;54839;51.364;7.246;2022-12-10T14:23:05;63.63;;;37.27;;
68050;SDS011;54839;51.364;7.246;2022-12-10T14:25:58;61.50;;;35.20;;
68050;SDS011;54839;51.364;7.246;2022-12-10T14:28:29;63.50;;;35.10;;
68050;SDS011;54839;51.364;7.246;2022-12-10T14:30:55;67.33;;;37.87;;
68050;SDS011;54839;51.364;7.246;2022-12-10T14:33:21;50.93;;;30.90;;
68050;SDS011;54839;51.364;7.246;2022-12-10T14:35:49;56.40;;;29.37;;
68050;SDS011;54839;51.364;7.246;2022-12-10T14:38:19;52.87;;;28.90;;
68050;SDS011;54839;51.364;7.246;2022-12-10T14:40:53;52.03;;;29.03;;
68050;SDS011;54839;51.364;7.246;2022-12-10T14:43:21;55.60;;;32.50;;
68050;SDS011;54839;51.364;7.246;2022-12-10T14:46:05;57.90;;;36.63;;
68050;SDS011;54839;51.364;7.246;2022-12-10T14:48:40;63.07;;;34.60;;
68050;SDS011;54839;51.364;7.246;2022-12-10T14:51:18;66.03;;;36.90;;
68050;SDS011;54839;51.364;7.246;2022-12-10T14:53:46;70.67;;;37.30;;
68050;SDS011;54839;51.364;7.246;2022-12-10T14:56:32;62.80;;;34.53;;
68050;SDS011;54839;51.364;7.246;2022-12-10T15:01:59;60.83;;;37.10;;
68050;SDS011;54839;51.364;7.246;2022-12-10T15:04:39;64.93;;;36.00;;
68050;SDS011;54839;51.364;7.246;2022-12-10T15:07:11;63.37;;;36.07;;
68050;SDS011;54839;51.364;7.246;2022-12-10T15:09:39;67.67;;;37.90;;
68050;SDS011;54839;51.364;7.246;2022-12-10T15:12:05;69.97;;;39.03;;
68050;SDS011;54839;51.364;7.246;2022-12-10T15:14:31;63.83;;;37.90;;
68050;SDS011;54839;51.364;7.246;2022-12-10T15:16:57;76.40;;;41.07;;
68050;SDS011;54839;51.364;7.246;2022-12-10T15:19:24;70.43;;;40.07;;
68050;SDS011;54839;51.364;7.246;2022-12-10T15:21:58;66.80;;;37.97;;
68050;SDS011;54839;51.364;7.246;2022-12-10T15:24:27;56.13;;;35.40;;
68050;SDS011;54839;51.364;7.246;2022-12-10T15:27:01;66.17;;;36.83;;
68050;SDS011;54839;51.364;7.246;2022-12-10T15:29:38;73.33;;;38.47;;
68050;SDS011;54839;51.364;7.246;2022-12-10T15:32:10;65.23;;;40.47;;
68050;SDS011;54839;51.364;7.246;2022-12-10T15:34:58;75.43;;;41.87;;
68050;SDS011;54839;51.364;7.246;2022-12-10T15:37:27;72.33;;;40.70;;
68050;SDS011;54839;51.364;7.246;2022-12-10T15:40:00;88.20;;;42.90;;
68050;SDS011;54839;51.364;7.246;2022-12-10T15:45:25;71.67;;;40.03;;
68050;SDS011;54839;51.364;7.246;2022-12-10T15:48:05;71.30;;;38.00;;
68050;SDS011;54839;51.364;7.246;2022-12-10T15:50:34;84.53;;;47.77;;
68050;SDS011;54839;51.364;7.246;2022-12-10T15:53:00;71.10;;;39.47;;
68050;SDS011;54839;51.364;7.246;2022-12-10T15:55:26;68.23;;;41.00;;
68050;SDS011;54839;51.364;7.246;2022-12-10T15:57:52;84.37;;;41.10;;
68050;SDS011;54839;51.364;7.246;2022-12-10T16:00:19;84.43;;;42.63;;
68050;SDS011;54839;51.364;7.246;2022-12-10T16:02:51;80.33;;;43.10;;
68050;SDS011;54839;51.364;7.246;2022-12-10T16:05:29;77.63;;;40.53;;
68050;SDS011;54839;51.364;7.246;2022-12-10T16:07:58;83.87;;;42.47;;
68050;SDS011;54839;51.364;7.246;2022-12-10T16:10:26;79.53;;;39.83;;
68050;SDS011;54839;51.364;7.246;2022-12-10T16:13:00;79.23;;;40.23;;
68050;SDS011;54839;51.364;7.246;2022-12-10T16:15:29;77.93;;;41.50;;
68050;SDS011;54839;51.364;7.246;2022-12-10T16:18:00;76.13;;;42.57;;
68050;SDS011;54839;51.364;7.246;2022-12-10T16:20:28;82.00;;;43.57;;
68050;SDS011;54839;51.364;7.246;2022-12-10T16:22:56;83.00;;;41.77;;
68050;SDS011;54839;51.364;7.246;2022-12-10T16:25:23;70.23;;;37.93;;
68050;SDS011;54839;51.364;7.246;2022-12-10T16:27:50;77.83;;;40.37;;
68050;SDS011;54839;51.364;7.246;2022-12-10T16:30:34;73.80;;;40.97;;
68050;SDS011;54839;51.364;7.246;2022-12-10T16:33:06;80.87;;;39.90;;
68050;SDS011;54839;51.364;7.246;2022-12-10T16:35:32;79.80;;;40.70;;
68050;SDS011;54839;51.364;7.246;2022-12-10T16:37:58;72.33;;;37.17;;
68050;SDS011;54839;51.364;7.246;2022-12-10T16:40:25;78.27;;;38.37;;